Time;durP1;ratioP1;P1;durP2;ratioP2;P2;SDS_P1;SDS_P2;PMS_P1;PMS_P2;Temp;Humidity;BMP_temperature;BMP_pressure;BME280_temperature;BME280_humidity;BME280_pressure;Samples;Min_cycle;Max_cycle;Signal;HPM_P1;HPM_P2
2023/05/06 00:00:41;;;;;;;20.60;10.18;;;;;;;6.58;100.00;101070.75;4994207;28;20065;-74
2023/05/06 00:03:08;;;;;;;27.90;10.70;;;;;;;6.36;100.00;101074.31;4996672;28;20069;-74
2023/05/06 00:05:35;;;;;;;30.40;11.63;;;;;;;6.29;100.00;101100.59;4994986;28;20136;-72
2023/05/06 00:08:02;;;;;;;24.42;12.25;;;;;;;6.29;100.00;101087.28;4995252;28;20054;-73
2023/05/06 00:10:28;;;;;;;26.77;12.45;;;;;;;6.32;100.00;101081.72;4995401;28;20046;-71
2023/05/06 00:12:55;;;;;;;29.65;12.68;;;;;;;6.23;100.00;101093.06;4995460;28;20043;-73
2023/05/06 00:15:21;;;;;;;19.30;11.25;;;;;;;6.29;100.00;101089.94;4996954;28;20414;-71
2023/05/06 00:17:48;;;;;;;24.55;12.65;;;;;;;6.15;100.00;101091.03;4993004;28;20110;-73
2023/05/06 00:20:15;;;;;;;22.48;12.73;;;;;;;6.09;100.00;101083.50;5002152;28;20058;-72
2023/05/06 00:22:41;;;;;;;25.92;12.30;;;;;;;5.93;100.00;101081.19;5004599;28;20928;-71
2023/05/06 00:47:25;;;;;;;27.63;13.10;;;;;;;15.27;100.00;101077.69;4841557;23;20050;-70
2023/05/06 00:49:52;;;;;;;33.58;13.43;;;;;;;14.54;100.00;101066.38;4991641;28;20050;-71
2023/05/06 00:52:19;;;;;;;23.75;14.25;;;;;;;15.16;100.00;101071.69;4991223;28;20142;-70
2023/05/06 00:54:45;;;;;;;26.13;12.85;;;;;;;14.63;100.00;101068.00;4992286;28;20050;-74
2023/05/06 00:57:12;;;;;;;22.05;12.85;;;;;;;14.52;100.00;101068.41;4973381;28;20043;-74
2023/05/06 00:59:39;;;;;;;23.25;12.80;;;;;;;14.03;100.00;101079.44;4972093;28;20050;-72
2023/05/06 01:02:06;;;;;;;26.55;12.45;;;;;;;14.53;100.00;101073.63;4971773;28;20495;-70
2023/05/06 01:04:32;;;;;;;26.42;13.30;;;;;;;14.61;100.00;101071.91;4978857;28;20054;-75
2023/05/06 01:07:31;;;;;;;22.55;13.38;;;;;;;14.52;100.00;101068.41;4990937;28;20074;-73
2023/05/06 01:10:09;;;;;;;30.35;13.88;;;;;;;15.24;100.00;101065.38;5007476;28;20101;-75
2023/05/06 01:12:42;;;;;;;26.95;14.35;;;;;;;15.57;100.00;101060.50;5007266;28;20080;-73
2023/05/06 01:15:24;;;;;;;22.83;13.77;;;;;;;15.05;100.00;101064.03;5003617;28;20053;-73
2023/05/06 01:17:52;;;;;;;33.35;13.73;;;;;;;14.69;100.00;101064.56;5005028;28;20054;-74
2023/05/06 01:20:20;;;;;;;25.95;14.00;;;;;;;14.63;100.00;101056.34;5005125;28;20054;-75
2023/05/06 01:22:48;;;;;;;25.90;15.00;;;;;;;15.05;100.00;101055.06;5003053;28;20049;-74
2023/05/06 01:25:19;;;;;;;26.55;14.43;;;;;;;14.65;100.00;101049.75;5000849;28;20054;-73
2023/05/06 01:27:46;;;;;;;24.10;13.32;;;;;;;15.47;100.00;101051.81;4998693;28;20057;-75
2023/05/06 01:30:14;;;;;;;26.60;14.55;;;;;;;14.34;100.00;101048.94;4997480;28;20042;-75
2023/05/06 01:33:00;;;;;;;23.45;13.20;;;;;;;14.88;100.00;101051.69;4996282;28;20060;-74
2023/05/06 01:35:45;;;;;;;21.13;12.90;;;;;;;14.19;100.00;101049.69;4994773;28;20066;-74
2023/05/06 01:38:19;;;;;;;19.55;12.88;;;;;;;14.62;100.00;101049.28;4996901;28;20052;-73
2023/05/06 01:40:53;;;;;;;22.23;12.98;;;;;;;14.15;100.00;101044.81;5001226;28;20122;-73
2023/05/06 01:43:25;;;;;;;26.70;13.48;;;;;;;14.37;100.00;101054.00;5002345;28;20073;-74
2023/05/06 01:45:54;;;;;;;32.83;13.98;;;;;;;14.62;100.00;101058.22;5004460;28;20058;-74
2023/05/06 01:48:27;;;;;;;24.48;12.68;;;;;;;14.43;100.00;101042.50;5004221;28;20054;-75
2023/05/06 01:50:54;;;;;;;26.55;13.98;;;;;;;14.84;100.00;101056.56;5006230;28;20072;-75
2023/05/06 01:53:21;;;;;;;26.42;13.20;;;;;;;14.77;100.00;101056.47;4990008;28;20109;-74
2023/05/06 01:55:47;;;;;;;28.70;14.95;;;;;;;15.16;100.00;101052.78;5009069;28;20105;-75
2023/05/06 01:58:14;;;;;;;31.00;14.98;;;;;;;14.76;100.00;101054.78;5006430;28;20066;-74
2023/05/06 02:00:41;;;;;;;23.52;13.77;;;;;;;14.95;100.00;101041.81;5007326;28;20060;-73
2023/05/06 02:03:07;;;;;;;30.85;14.13;;;;;;;15.25;100.00;101043.56;4990113;28;20042;-73
2023/05/06 02:05:34;;;;;;;25.08;14.73;;;;;;;12.51;100.00;101038.75;4982018;28;20554;-72
2023/05/06 02:08:01;;;;;;;30.33;14.85;;;;;;;13.38;100.00;101047.22;4983555;28;20113;-73
2023/05/06 02:10:27;;;;;;;29.83;13.70;;;;;;;11.86;100.00;101040.22;4967657;28;20070;-75
2023/05/06 02:12:54;;;;;;;31.77;14.57;;;;;;;11.99;100.00;101044.28;4983786;28;20115;-74
2023/05/06 02:15:21;;;;;;;29.65;14.80;;;;;;;12.48;100.00;101039.06;4976514;28;20074;-75
2023/05/06 02:17:48;;;;;;;29.98;14.70;;;;;;;12.03;100.00;101051.03;4979812;28;20050;-73
2023/05/06 02:20:14;;;;;;;36.50;15.90;;;;;;;12.88;100.00;101047.22;4984015;28;20078;-74
2023/05/06 02:22:41;;;;;;;26.35;14.38;;;;;;;11.75;100.00;101045.03;4985194;28;20049;-73
2023/05/06 02:25:07;;;;;;;33.03;15.15;;;;;;;13.01;100.00;101054.00;4984430;28;20057;-74
2023/05/06 02:27:34;;;;;;;30.55;14.77;;;;;;;11.98;100.00;101046.16;4984054;28;20067;-74
2023/05/06 02:30:02;;;;;;;31.63;14.55;;;;;;;11.62;100.00;101040.03;4985159;28;20051;-69
2023/05/06 02:32:28;;;;;;;30.23;15.18;;;;;;;11.95;100.00;101059.06;4993078;28;20042;-70
2023/05/06 02:34:54;;;;;;;26.25;13.30;;;;;;;12.43;100.00;101047.66;4993497;28;20065;-69
2023/05/06 02:37:21;;;;;;;27.23;14.55;;;;;;;12.36;100.00;101052.84;4991257;28;20065;-66
2023/05/06 02:39:48;;;;;;;33.55;15.63;;;;;;;14.73;100.00;101059.69;4990245;28;20074;-68
2023/05/06 02:42:15;;;;;;;36.90;15.55;;;;;;;15.51;100.00;101055.84;4972888;28;20062;-69
2023/05/06 02:44:41;;;;;;;29.25;15.77;;;;;;;15.13;100.00;101061.25;4988011;28;20046;-69
2023/05/06 02:47:08;;;;;;;28.30;14.55;;;;;;;14.46;100.00;101066.41;4983774;28;20133;-68
2023/05/06 02:49:34;;;;;;;32.08;15.05;;;;;;;13.52;100.00;101060.81;4984301;28;20138;-69
2023/05/06 02:52:01;;;;;;;29.67;15.73;;;;;;;13.96;100.00;101052.31;4984888;28;20046;-68
2023/05/06 02:54:27;;;;;;;32.20;14.85;;;;;;;13.34;100.00;101049.41;4982602;28;20053;-67
2023/05/06 02:56:54;;;;;;;26.80;16.08;;;;;;;13.26;100.00;101035.97;4983530;28;20126;-67
2023/05/06 02:59:21;;;;;;;29.75;15.10;;;;;;;12.82;100.00;101037.13;4983843;28;20078;-68
2023/05/06 03:01:48;;;;;;;31.13;15.27;;;;;;;12.46;100.00;101033.88;4980663;28;20141;-69
2023/05/06 03:04:14;;;;;;;32.92;15.60;;;;;;;12.64;100.00;101033.72;4992839;28;20145;-70
2023/05/06 03:06:41;;;;;;;27.55;15.82;;;;;;;13.44;100.00;101047.38;4993241;28;20062;-70
2023/05/06 03:09:07;;;;;;;32.90;16.45;;;;;;;13.21;100.00;101043.69;4993094;28;20118;-70
2023/05/06 03:11:34;;;;;;;38.63;14.70;;;;;;;12.38;100.00;101044.59;4993415;28;20051;-69
2023/05/06 03:14:00;;;;;;;32.35;16.90;;;;;;;12.82;100.00;101047.91;4993192;28;20054;-69
2023/05/06 03:16:27;;;;;;;31.95;15.70;;;;;;;12.99;100.00;101051.44;4980378;28;20047;-69
2023/05/06 03:18:53;;;;;;;27.35;15.85;;;;;;;13.81;100.00;101049.50;4978875;28;20042;-69
2023/05/06 03:21:20;;;;;;;35.70;17.38;;;;;;;13.58;100.00;101059.31;4993236;28;20525;-76
2023/05/06 03:23:46;;;;;;;35.13;16.55;;;;;;;13.76;100.00;101057.25;4992924;28;20069;-77
2023/05/06 03:26:13;;;;;;;31.15;17.05;;;;;;;13.50;100.00;101056.63;4982655;28;20061;-76
2023/05/06 03:28:43;;;;;;;36.47;16.10;;;;;;;12.64;100.00;101055.25;4977727;28;20042;-77
2023/05/06 03:31:09;;;;;;;32.55;15.75;;;;;;;12.48;100.00;101053.34;4991495;28;20133;-77
2023/05/06 03:33:36;;;;;;;26.90;16.27;;;;;;;12.93;100.00;101048.56;4992023;28;20125;-77
2023/05/06 03:36:03;;;;;;;30.45;15.82;;;;;;;12.75;100.00;101041.50;4993242;28;20050;-77
2023/05/06 03:38:30;;;;;;;39.45;16.08;;;;;;;12.35;100.00;101039.56;4993069;28;20039;-77
2023/05/06 03:40:56;;;;;;;27.25;14.55;;;;;;;12.14;100.00;101040.84;4992266;28;20042;-77
2023/05/06 03:43:23;;;;;;;27.98;16.27;;;;;;;12.48;100.00;101041.75;4988626;28;20060;-70
2023/05/06 03:45:49;;;;;;;29.08;17.05;;;;;;;12.44;100.00;101040.41;4974617;28;20054;-70
2023/05/06 03:48:16;;;;;;;38.58;16.77;;;;;;;12.58;100.00;101039.75;4991905;28;20491;-69
2023/05/06 03:50:42;;;;;;;24.55;15.82;;;;;;;12.50;100.00;101037.06;4991758;28;20050;-69
2023/05/06 03:53:09;;;;;;;25.88;15.40;;;;;;;12.83;100.00;101022.69;4992335;28;20125;-70
2023/05/06 03:55:36;;;;;;;34.50;16.35;;;;;;;11.74;100.00;101014.63;4991849;28;20038;-73
2023/05/06 03:58:02;;;;;;;34.15;16.30;;;;;;;11.82;100.00;101011.13;4992743;28;20066;-70
2023/05/06 04:00:29;;;;;;;33.58;15.30;;;;;;;11.26;100.00;101015.97;4991419;28;20046;-70
2023/05/06 04:02:55;;;;;;;27.08;16.35;;;;;;;12.49;100.00;101013.88;4979410;28;20043;-70
2023/05/06 04:05:22;;;;;;;30.83;16.02;;;;;;;11.97;100.00;101012.22;4963431;28;20074;-69
2023/05/06 04:07:48;;;;;;;27.40;16.38;;;;;;;10.89;100.00;101021.56;4971777;28;20047;-70
2023/05/06 04:10:15;;;;;;;28.73;15.20;;;;;;;12.27;100.00;101021.53;4972497;28;20415;-71
2023/05/06 04:12:41;;;;;;;32.72;16.50;;;;;;;11.68;100.00;101023.31;4972340;28;20411;-69
2023/05/06 04:15:09;;;;;;;30.20;15.48;;;;;;;12.20;100.00;101025.03;4963863;28;20050;-68
2023/05/06 04:17:36;;;;;;;30.80;16.30;;;;;;;12.48;100.00;101028.31;4973277;28;20139;-69
2023/05/06 04:20:03;;;;;;;30.65;16.27;;;;;;;12.17;100.00;101031.59;4972685;28;20046;-68
2023/05/06 04:22:30;;;;;;;26.25;14.93;;;;;;;11.87;100.00;101041.91;4971872;28;20460;-69
2023/05/06 04:24:59;;;;;;;27.77;15.15;;;;;;;11.61;100.00;101035.66;4954830;28;20055;-69
2023/05/06 04:27:28;;;;;;;30.05;15.00;;;;;;;12.24;100.00;101043.38;4970707;28;20047;-70
2023/05/06 04:29:55;;;;;;;28.02;14.95;;;;;;;12.43;100.00;101046.81;4971928;28;20117;-70
2023/05/06 04:32:25;;;;;;;30.90;14.88;;;;;;;12.30;100.00;101036.50;4971837;28;20529;-70
2023/05/06 04:34:52;;;;;;;33.42;13.88;;;;;;;12.80;100.00;101049.94;4972596;28;20050;-70
2023/05/06 04:37:19;;;;;;;26.50;14.40;;;;;;;12.69;100.00;101043.97;4972649;28;20526;-70
2023/05/06 04:39:46;;;;;;;23.48;14.18;;;;;;;12.81;100.00;101046.22;4971891;28;20051;-70
2023/05/06 04:42:14;;;;;;;23.77;13.38;;;;;;;12.26;100.00;101051.28;4964893;28;20043;-70
2023/05/06 04:44:42;;;;;;;26.38;13.60;;;;;;;11.21;100.00;101050.53;4971450;28;20174;-70
2023/05/06 04:47:08;;;;;;;28.70;14.02;;;;;;;12.01;100.00;101058.44;4972755;28;20338;-70
2023/05/06 04:49:35;;;;;;;24.42;13.48;;;;;;;12.10;100.00;101058.28;4955016;28;20042;-70
2023/05/06 04:52:01;;;;;;;29.65;14.00;;;;;;;12.05;100.00;101065.16;4972423;28;20047;-69
2023/05/06 04:54:28;;;;;;;30.90;14.32;;;;;;;12.58;100.00;101066.69;4972320;28;20051;-68
2023/05/06 04:56:54;;;;;;;23.13;12.70;;;;;;;12.02;100.00;101060.94;4971427;28;20069;-70
2023/05/06 04:59:21;;;;;;;23.25;13.88;;;;;;;11.72;100.00;101059.63;4972165;28;20049;-69
2023/05/06 05:01:47;;;;;;;20.70;12.52;;;;;;;11.83;100.00;101064.72;4975346;28;20053;-68
2023/05/06 05:04:14;;;;;;;21.23;12.90;;;;;;;11.88;100.00;101072.31;4990559;28;20053;-69
2023/05/06 05:06:41;;;;;;;26.15;12.60;;;;;;;11.46;100.00;101070.34;4990137;28;20415;-70
2023/05/06 05:09:09;;;;;;;22.35;12.45;;;;;;;11.86;100.00;101068.94;4991456;28;20042;-69
2023/05/06 05:11:37;;;;;;;23.80;13.02;;;;;;;11.65;100.00;101080.03;4987276;28;20054;-69
2023/05/06 05:14:03;;;;;;;27.00;12.43;;;;;;;11.85;100.00;101078.84;4990447;28;20046;-69
2023/05/06 05:16:30;;;;;;;25.13;13.52;;;;;;;10.91;100.00;101076.78;4991124;28;20790;-71
2023/05/06 05:18:57;;;;;;;26.63;12.30;;;;;;;11.58;100.00;101078.97;4990734;28;20046;-70
2023/05/06 05:21:23;;;;;;;22.58;13.88;;;;;;;11.15;100.00;101083.38;4981137;28;20051;-69
2023/05/06 05:23:49;;;;;;;27.63;13.02;;;;;;;11.68;100.00;101077.91;4990269;28;20046;-69
2023/05/06 05:26:16;;;;;;;25.58;13.27;;;;;;;11.64;100.00;101084.56;4990790;28;20515;-68
2023/05/06 05:28:43;;;;;;;24.65;12.55;;;;;;;11.19;100.00;101090.13;4990034;28;20128;-76
2023/05/06 05:31:10;;;;;;;22.67;13.25;;;;;;;12.23;100.00;101083.91;4990781;28;20418;-76
2023/05/06 05:33:36;;;;;;;24.25;12.98;;;;;;;11.80;100.00;101083.03;4991519;28;20045;-75
2023/05/06 05:36:03;;;;;;;29.35;14.15;;;;;;;11.34;100.00;101085.88;4990784;28;20042;-76
2023/05/06 05:38:30;;;;;;;24.75;12.07;;;;;;;10.62;100.00;101085.06;4990924;28;20042;-75
2023/05/06 05:40:56;;;;;;;20.05;12.10;;;;;;;11.41;100.00;101080.72;4988258;28;20066;-76
2023/05/06 05:43:24;;;;;;;27.00;12.90;;;;;;;11.03;100.00;101085.44;4987794;28;20046;-75
2023/05/06 05:45:51;;;;;;;23.58;13.10;;;;;;;11.30;100.00;101084.50;4988698;28;20076;-76
2023/05/06 05:48:17;;;;;;;35.72;16.25;;;;;;;11.17;100.00;101076.00;4990742;28;20053;-73
2023/05/06 05:50:45;;;;;;;24.50;12.85;;;;;;;11.58;100.00;101084.34;4990530;28;20433;-74
2023/05/06 05:53:11;;;;;;;31.55;12.20;;;;;;;11.15;100.00;101078.00;4988297;28;20126;-74
2023/05/06 05:55:38;;;;;;;26.23;12.63;;;;;;;10.90;100.00;101085.00;4990625;28;20120;-76
2023/05/06 05:58:04;;;;;;;23.65;11.98;;;;;;;11.42;100.00;101085.09;4989931;28;20057;-76
2023/05/06 06:00:31;;;;;;;21.10;11.93;;;;;;;11.49;100.00;101082.63;4989321;28;20046;-76
2023/05/06 06:02:57;;;;;;;19.63;12.05;;;;;;;11.49;100.00;101088.00;4989654;28;20042;-76
2023/05/06 06:05:25;;;;;;;27.48;12.50;;;;;;;11.49;100.00;101085.31;4989493;28;20530;-75
2023/05/06 06:07:51;;;;;;;21.92;10.82;;;;;;;11.58;100.00;101089.72;4990737;28;20051;-69
2023/05/06 06:10:18;;;;;;;24.80;12.32;;;;;;;11.33;100.00;101092.25;4990857;28;20053;-68
2023/05/06 06:12:45;;;;;;;21.33;11.23;;;;;;;11.52;100.00;101095.72;4989686;28;20048;-71
2023/05/06 06:15:11;;;;;;;22.42;11.98;;;;;;;12.69;100.00;101106.72;4990228;28;20049;-72
2023/05/06 06:17:38;;;;;;;21.80;11.13;;;;;;;12.74;100.00;101112.50;4990753;28;20049;-77
2023/05/06 06:20:05;;;;;;;27.00;12.75;;;;;;;12.96;100.00;101110.19;4987716;28;20042;-79
2023/05/06 06:22:31;;;;;;;30.00;11.90;;;;;;;12.59;100.00;101114.97;4989764;28;20474;-78
2023/05/06 06:24:58;;;;;;;22.40;11.65;;;;;;;12.07;100.00;101107.03;4988767;28;20483;-78
2023/05/06 06:27:24;;;;;;;16.00;10.48;;;;;;;11.90;100.00;101116.84;4990199;28;20133;-77
2023/05/06 06:29:51;;;;;;;17.10;10.57;;;;;;;12.35;100.00;101112.19;4953746;28;20065;-68
2023/05/06 06:32:18;;;;;;;19.92;10.73;;;;;;;12.21;100.00;101112.78;4952991;29;20142;-71
2023/05/06 06:34:44;;;;;;;20.77;11.13;;;;;;;12.25;100.00;101115.00;4953020;29;20047;-69
2023/05/06 06:37:11;;;;;;;26.60;11.75;;;;;;;12.54;100.00;101105.69;4952037;29;20080;-70
2023/05/06 06:39:38;;;;;;;16.55;11.20;;;;;;;12.44;100.00;101102.28;4952519;29;20491;-70
2023/05/06 06:42:05;;;;;;;21.25;10.30;;;;;;;12.46;100.00;101101.13;4948951;29;20043;-71
2023/05/06 06:44:33;;;;;;;26.70;11.50;;;;;;;12.86;100.00;101110.34;4952125;29;20071;-69
2023/05/06 06:46:59;;;;;;;21.20;10.77;;;;;;;12.30;100.00;101112.66;4950818;29;20123;-70
2023/05/06 06:49:26;;;;;;;20.25;11.02;;;;;;;12.68;100.00;101099.66;4952102;29;20055;-71
2023/05/06 06:51:53;;;;;;;18.67;10.98;;;;;;;11.99;100.00;101104.28;4951445;29;20047;-76
2023/05/06 06:54:19;;;;;;;22.90;11.02;;;;;;;11.77;100.00;101107.53;4951714;29;20389;-75
2023/05/06 06:56:46;;;;;;;20.90;11.18;;;;;;;12.35;100.00;101110.34;4952480;29;20469;-75
2023/05/06 06:59:13;;;;;;;21.27;11.05;;;;;;;11.23;100.00;101107.59;4957076;28;20054;-68
2023/05/06 07:01:40;;;;;;;23.88;11.48;;;;;;;11.51;100.00;101104.78;4972406;28;20062;-68
2023/05/06 07:04:07;;;;;;;26.08;11.68;;;;;;;11.69;100.00;101105.66;4990698;28;20047;-69
2023/05/06 07:06:33;;;;;;;19.73;12.07;;;;;;;12.14;100.00;101109.91;4990182;28;20055;-71
2023/05/06 07:09:00;;;;;;;22.60;11.23;;;;;;;11.57;100.00;101113.06;4993822;28;20478;-77
2023/05/06 07:11:26;;;;;;;22.17;12.02;;;;;;;12.26;100.00;101110.47;4968869;28;20078;-76
2023/05/06 07:13:53;;;;;;;23.40;12.20;;;;;;;11.56;100.00;101118.63;4955952;29;20534;-77
2023/05/06 07:16:20;;;;;;;19.08;11.80;;;;;;;11.15;100.00;101118.28;4956067;29;20576;-76
2023/05/06 07:18:48;;;;;;;19.33;11.38;;;;;;;11.54;100.00;101115.22;4955735;29;20102;-77
2023/05/06 07:21:15;;;;;;;17.00;11.02;;;;;;;11.06;100.00;101113.81;4955175;29;20062;-77
2023/05/06 07:23:42;;;;;;;24.83;12.35;;;;;;;11.87;100.00;101116.34;4938346;29;20264;-76
2023/05/06 07:26:08;;;;;;;22.02;12.15;;;;;;;11.62;100.00;101120.66;4955285;29;20066;-77
2023/05/06 07:28:35;;;;;;;23.63;12.32;;;;;;;12.26;100.00;101115.84;4945280;28;20055;-75
2023/05/06 07:31:01;;;;;;;21.30;11.70;;;;;;;12.29;100.00;101124.44;4938001;29;20103;-77
2023/05/06 07:33:28;;;;;;;20.20;12.60;;;;;;;12.13;100.00;101129.75;4926964;29;20055;-77
2023/05/06 07:35:54;;;;;;;28.02;11.65;;;;;;;12.15;100.00;101130.44;4954305;29;20555;-76
2023/05/06 07:38:22;;;;;;;18.02;11.60;;;;;;;11.99;100.00;101131.19;4944760;28;20047;-78
2023/05/06 07:40:50;;;;;;;21.63;11.93;;;;;;;11.79;100.00;101135.09;4954210;29;20426;-77
2023/05/06 07:43:16;;;;;;;17.08;11.68;;;;;;;11.74;100.00;101127.50;4955169;29;20043;-77
2023/05/06 07:45:43;;;;;;;18.90;12.40;;;;;;;12.39;100.00;101144.00;4953872;29;20142;-76
2023/05/06 07:48:10;;;;;;;19.50;11.88;;;;;;;11.54;100.00;101131.34;4954233;29;20416;-77
2023/05/06 07:50:36;;;;;;;22.80;12.90;;;;;;;11.58;100.00;101135.41;4953659;29;20075;-78
2023/05/06 07:53:03;;;;;;;23.67;11.73;;;;;;;11.48;100.00;101127.44;4953398;29;20134;-76
2023/05/06 07:55:30;;;;;;;22.17;12.05;;;;;;;11.49;100.00;101134.53;4954173;29;20130;-77
2023/05/06 07:57:58;;;;;;;26.15;12.25;;;;;;;11.93;100.00;101137.19;4953820;29;20047;-77
2023/05/06 08:00:25;;;;;;;23.30;13.10;;;;;;;13.29;100.00;101149.63;4954112;28;20102;-76
2023/05/06 08:02:51;;;;;;;21.67;12.07;;;;;;;13.31;100.00;101150.28;4979543;28;20487;-77
2023/05/06 08:05:18;;;;;;;23.55;12.32;;;;;;;12.78;100.00;101156.09;4993384;28;20488;-78
2023/05/06 08:07:45;;;;;;;17.13;11.75;;;;;;;12.11;100.00;101155.97;4992760;28;20491;-78
2023/05/06 08:10:11;;;;;;;20.88;12.18;;;;;;;12.51;100.00;101155.28;4992232;28;20444;-77
2023/05/06 08:12:38;;;;;;;18.98;11.60;;;;;;;12.45;100.00;101153.25;4985290;28;20074;-77
2023/05/06 08:15:05;;;;;;;19.88;12.02;;;;;;;12.15;100.00;101165.41;4992371;28;20042;-77
2023/05/06 08:17:32;;;;;;;21.17;12.30;;;;;;;12.12;100.00;101168.41;4990918;28;20050;-78
2023/05/06 08:19:59;;;;;;;18.55;11.95;;;;;;;11.59;100.00;101166.69;4991855;28;20097;-78
2023/05/06 08:22:25;;;;;;;18.83;12.55;;;;;;;11.42;100.00;101165.69;4993459;28;20070;-77
2023/05/06 08:24:53;;;;;;;21.58;13.35;;;;;;;12.03;100.00;101163.97;4992333;28;20042;-79
2023/05/06 08:27:19;;;;;;;17.90;12.45;;;;;;;12.75;100.00;101181.50;4993694;28;20105;-77
2023/05/06 08:29:46;;;;;;;22.98;13.23;;;;;;;12.17;100.00;101171.44;4993250;28;20117;-78
2023/05/06 08:32:12;;;;;;;24.58;14.77;;;;;;;11.54;100.00;101174.34;4993152;28;20053;-76
2023/05/06 08:34:39;;;;;;;23.63;13.95;;;;;;;12.16;100.00;101170.59;4992633;28;20062;-78
2023/05/06 08:37:06;;;;;;;22.67;14.32;;;;;;;12.77;100.00;101176.81;4992135;28;20096;-76
2023/05/06 08:39:33;;;;;;;24.08;15.73;;;;;;;12.48;100.00;101179.00;4992037;28;20386;-77
2023/05/06 08:42:01;;;;;;;18.92;13.25;;;;;;;13.04;100.00;101180.22;4965094;28;20046;-78
2023/05/06 08:44:28;;;;;;;20.45;13.95;;;;;;;11.61;100.00;101178.09;4952538;29;20059;-76
2023/05/06 08:46:55;;;;;;;23.67;15.48;;;;;;;12.04;100.00;101182.66;4952499;29;20385;-76
2023/05/06 08:49:22;;;;;;;25.13;14.77;;;;;;;12.32;100.00;101190.53;4953658;29;20126;-78
2023/05/06 08:51:54;;;;;;;23.73;15.98;;;;;;;11.88;100.00;101188.75;4953175;29;20051;-77
2023/05/06 08:54:24;;;;;;;26.10;15.60;;;;;;;12.49;100.00;101186.94;4953147;29;20078;-76
2023/05/06 08:56:53;;;;;;;24.20;17.13;;;;;;;12.25;100.00;101193.03;4949068;29;20047;-77
2023/05/06 08:59:23;;;;;;;29.02;17.02;;;;;;;12.53;100.00;101192.81;4952940;29;20047;-78
2023/05/06 09:01:50;;;;;;;27.35;17.55;;;;;;;13.07;100.00;101194.19;4960220;28;20450;-78
2023/05/06 09:04:19;;;;;;;25.52;17.55;;;;;;;12.68;100.00;101183.13;4991638;28;20049;-78
2023/05/06 09:06:46;;;;;;;26.75;17.17;;;;;;;12.55;100.00;101185.41;4991577;28;20454;-76
2023/05/06 09:09:13;;;;;;;24.88;17.67;;;;;;;12.80;100.00;101206.09;4990011;28;20049;-77
2023/05/06 09:11:40;;;;;;;25.33;18.25;;;;;;;13.65;100.00;101203.19;4990226;28;20049;-77
2023/05/06 09:14:09;;;;;;;32.03;18.70;;;;;;;13.09;100.00;101212.91;4991249;28;20398;-77
2023/05/06 09:16:35;;;;;;;27.05;19.05;;;;;;;12.80;100.00;101208.78;4991711;28;20110;-77
2023/05/06 09:19:02;;;;;;;25.25;16.58;;;;;;;12.73;100.00;101209.53;4991609;28;20050;-76
2023/05/06 09:21:49;;;;;;;22.77;17.23;;;;;;;12.50;100.00;101209.28;4986662;28;20124;-75
2023/05/06 09:24:16;;;;;;;25.58;17.73;;;;;;;13.07;100.00;101209.50;4990599;28;20129;-77
2023/05/06 09:26:44;;;;;;;26.88;18.85;;;;;;;13.52;100.00;101211.78;4990772;28;20048;-77
2023/05/06 09:29:11;;;;;;;24.48;17.40;;;;;;;12.94;100.00;101209.13;4983593;28;20042;-77
2023/05/06 09:31:42;;;;;;;27.13;18.48;;;;;;;13.38;100.00;101220.53;4984035;28;20051;-71
2023/05/06 09:34:09;;;;;;;24.02;18.10;;;;;;;13.15;100.00;101216.81;4955213;28;20051;-71
2023/05/06 09:36:36;;;;;;;30.77;17.08;;;;;;;12.50;100.00;101209.28;4952082;29;20047;-70
2023/05/06 09:39:03;;;;;;;24.17;18.13;;;;;;;13.62;100.00;101206.22;4951815;29;20057;-71
2023/05/06 09:41:30;;;;;;;24.60;18.02;;;;;;;13.04;100.00;101208.03;4951076;29;20682;-70
2023/05/06 09:43:58;;;;;;;26.80;18.48;;;;;;;13.46;100.00;101206.22;4949105;29;20047;-70
2023/05/06 09:46:29;;;;;;;21.85;17.48;;;;;;;12.75;100.00;101205.72;4951720;29;20504;-72
2023/05/06 09:48:57;;;;;;;32.78;18.13;;;;;;;13.39;100.00;101200.66;4951305;29;20110;-71
2023/05/06 09:51:26;;;;;;;26.17;17.65;;;;;;;13.90;100.00;101211.28;4930344;29;20522;-70
2023/05/06 09:53:54;;;;;;;29.42;18.25;;;;;;;13.34;100.00;101214.63;4945947;29;20051;-70
2023/05/06 09:56:22;;;;;;;24.23;16.95;;;;;;;13.23;100.00;101212.25;4951224;29;20467;-71
2023/05/06 09:58:51;;;;;;;23.02;17.05;;;;;;;12.68;100.00;101217.28;4945068;29;20039;-70
2023/05/06 10:01:17;;;;;;;21.17;16.35;;;;;;;13.25;100.00;101212.94;4950786;29;20059;-71
2023/05/06 10:04:04;;;;;;;21.30;17.20;;;;;;;13.49;100.00;101220.22;4950858;29;20126;-72
2023/05/06 10:06:34;;;;;;;20.90;16.70;;;;;;;13.48;100.00;101220.38;4950687;29;20047;-70
2023/05/06 10:09:01;;;;;;;24.58;16.20;;;;;;;13.44;100.00;101221.72;4949752;29;20051;-72
2023/05/06 10:11:30;;;;;;;21.30;13.63;;;;;;;12.76;100.00;101218.16;4950910;29;20058;-72
2023/05/06 10:13:58;;;;;;;18.05;13.55;;;;;;;12.38;100.00;101227.56;4951912;29;20047;-70
2023/05/06 10:16:26;;;;;;;19.42;13.75;;;;;;;12.82;100.00;101225.59;4950601;29;20082;-71
2023/05/06 10:18:54;;;;;;;19.42;15.02;;;;;;;13.73;100.00;101232.84;4950449;29;20047;-72
2023/05/06 10:21:26;;;;;;;20.40;15.05;;;;;;;13.66;100.00;101234.53;4951028;29;20047;-71
2023/05/06 10:24:10;;;;;;;21.23;14.70;;;;;;;13.46;100.00;101238.56;4951197;29;20047;-70
2023/05/06 10:26:38;;;;;;;23.27;14.60;;;;;;;13.71;100.00;101229.47;4950992;28;20122;-72
2023/05/06 10:29:08;;;;;;;22.17;14.80;;;;;;;14.67;100.00;101236.75;4934041;29;20086;-72
2023/05/06 10:31:42;;;;;;;21.48;13.65;;;;;;;14.20;100.00;101236.72;4950882;29;20393;-71
2023/05/06 10:34:09;;;;;;;18.95;14.48;;;;;;;14.44;97.40;101238.53;4950690;29;20098;-70
2023/05/06 10:36:38;;;;;;;22.27;14.20;;;;;;;14.22;100.00;101231.97;4949760;29;20560;-70
2023/05/06 10:39:09;;;;;;;16.45;12.85;;;;;;;13.27;100.00;101221.69;4948521;29;20047;-71
2023/05/06 10:41:36;;;;;;;19.02;13.95;;;;;;;13.30;100.00;101229.44;4953035;28;20047;-70
2023/05/06 10:44:02;;;;;;;17.52;13.20;;;;;;;13.39;100.00;101233.00;4954566;29;20055;-70
2023/05/06 10:46:29;;;;;;;22.85;14.75;;;;;;;13.33;100.00;101241.75;4954297;29;20047;-70
2023/05/06 10:49:09;;;;;;;22.35;13.63;;;;;;;12.88;100.00;101230.34;4955589;29;20482;-70
2023/05/06 10:51:37;;;;;;;20.40;12.98;;;;;;;13.13;100.00;101238.50;4954417;29;20046;-70
2023/05/06 10:54:21;;;;;;;20.77;14.32;;;;;;;13.96;100.00;101234.91;4955237;29;20130;-70
2023/05/06 10:56:47;;;;;;;22.63;14.80;;;;;;;13.93;100.00;101232.53;4955044;29;20098;-71
2023/05/06 10:59:20;;;;;;;18.08;14.20;;;;;;;14.07;100.00;101234.53;4954393;29;20059;-71
2023/05/06 11:01:54;;;;;;;19.60;14.23;;;;;;;14.55;100.00;101235.44;4961161;28;20046;-71
2023/05/06 11:04:21;;;;;;;21.40;14.48;;;;;;;13.69;100.00;101238.75;4994303;28;20470;-71
2023/05/06 11:06:50;;;;;;;18.27;12.77;;;;;;;12.75;100.00;101229.94;4993294;28;20050;-70
2023/05/06 11:09:26;;;;;;;23.02;13.93;;;;;;;12.53;100.00;101235.88;4993329;28;20418;-71
2023/05/06 11:12:04;;;;;;;18.63;14.48;;;;;;;13.95;100.00;101241.31;4993873;28;20121;-71
2023/05/06 11:14:37;;;;;;;21.27;14.35;;;;;;;13.72;100.00;101250.03;4992064;28;20564;-72
2023/05/06 11:17:08;;;;;;;21.23;13.98;;;;;;;14.41;100.00;101252.38;4993191;28;20062;-71
2023/05/06 11:19:36;;;;;;;24.17;14.45;;;;;;;13.32;100.00;101251.69;4992550;28;20046;-71
2023/05/06 11:22:05;;;;;;;19.70;13.48;;;;;;;12.80;100.00;101254.56;4992814;28;20133;-71
2023/05/06 11:24:40;;;;;;;16.40;11.60;;;;;;;12.64;100.00;101249.91;4993895;28;20042;-77
2023/05/06 11:27:08;;;;;;;20.33;13.07;;;;;;;13.10;100.00;101258.53;4961351;28;20051;-77